Time;durP1;ratioP1;P1;durP2;ratioP2;P2;SDS_P1;SDS_P2;PMS_P1;PMS_P2;Temp;Humidity;BMP_temperature;BMP_pressure;BME280_temperature;BME280_humidity;BME280_pressure;Samples;Min_cycle;Max_cycle;Signal;HPM_P1;HPM_P2
2021/08/18 00:00:16;;;;;;;;;2.50;1.50;;;;;27.41;39.44;101889.31;5014349;28;47048;-68
2021/08/18 00:02:41;;;;;;;;;2.50;2.50;;;;;27.40;39.47;101888.47;5013218;28;45348;-69
2021/08/18 00:05:10;;;;;;;;;1.00;1.00;;;;;27.40;39.54;101888.47;5016785;28;45553;-69
2021/08/18 00:07:35;;;;;;;;;2.00;2.00;;;;;27.41;38.98;101889.31;5014930;28;45278;-69
2021/08/18 00:10:03;;;;;;;;;2.75;2.75;;;;;27.40;39.71;101888.47;5013490;28;45256;-69
2021/08/18 00:12:29;;;;;;;;;3.00;3.00;;;;;27.39;39.24;101883.34;5012667;28;45915;-69
2021/08/18 00:14:54;;;;;;;;;2.50;2.50;;;;;27.38;39.00;101879.00;5012973;28;45814;-69
2021/08/18 00:17:20;;;;;;;;;2.00;2.00;;;;;27.30;39.39;101871.94;5014866;28;45364;-69
2021/08/18 00:19:45;;;;;;;;;2.50;1.75;;;;;27.31;39.03;101868.25;5015575;28;47164;-69
2021/08/18 00:22:11;;;;;;;;;3.75;2.00;;;;;27.38;39.22;101876.31;5014169;28;45459;-69
2021/08/18 00:24:36;;;;;;;;;2.00;2.00;;;;;27.37;39.64;101882.72;5014184;28;45464;-69
2021/08/18 00:27:01;;;;;;;;;3.00;3.00;;;;;27.37;39.71;101878.19;4996370;28;45593;-69
2021/08/18 00:29:27;;;;;;;;;4.00;2.25;;;;;27.36;39.25;101873.84;5014353;28;46207;-69
2021/08/18 00:31:52;;;;;;;;;2.00;2.00;;;;;27.32;39.32;101864.59;5015576;28;45457;-69
2021/08/18 00:34:17;;;;;;;;;1.75;1.75;;;;;27.36;39.05;101871.19;5014142;28;45304;-69
2021/08/18 00:36:43;;;;;;;;;3.00;2.00;;;;;27.37;39.40;101874.69;5013870;28;45400;-69
2021/08/18 00:39:08;;;;;;;;;2.00;2.00;;;;;27.35;39.04;101864.19;5013873;28;46048;-69
2021/08/18 00:41:33;;;;;;;;;1.00;1.00;;;;;27.36;39.46;101868.50;5013960;28;46227;-69
2021/08/18 00:43:59;;;;;;;;;2.50;2.50;;;;;27.35;38.91;101874.88;5016014;28;45512;-69
2021/08/18 00:46:24;;;;;;;;;3.00;2.25;;;;;27.36;39.55;101867.69;5013574;28;45498;-69
2021/08/18 00:48:49;;;;;;;;;2.00;2.00;;;;;27.36;39.69;101868.50;5013634;28;46787;-69
2021/08/18 00:51:15;;;;;;;;;3.00;2.00;;;;;27.37;39.33;101864.00;5012325;28;45486;-69
2021/08/18 00:53:41;;;;;;;;;2.25;2.25;;;;;27.37;39.28;101864.00;5012524;28;45401;-69
2021/08/18 00:56:10;;;;;;;;;2.00;2.00;;;;;27.37;39.61;101866.69;5015941;28;45459;-69
2021/08/18 00:58:36;;;;;;;;;3.00;3.00;;;;;27.37;39.24;101861.34;5014123;28;47029;-68
2021/08/18 01:01:02;;;;;;;;;2.00;2.00;;;;;27.37;39.54;101861.34;5013027;28;45573;-69
2021/08/18 01:03:28;;;;;;;;;5.00;3.00;;;;;27.35;39.38;101858.84;5013656;28;45244;-69
2021/08/18 01:05:54;;;;;;;;;4.25;3.00;;;;;27.37;39.27;101861.34;5013833;28;45224;-68
2021/08/18 01:08:19;;;;;;;;;2.50;2.50;;;;;27.36;39.21;101859.66;5014217;28;46184;-69
2021/08/18 01:10:45;;;;;;;;;2.00;2.00;;;;;27.37;39.13;101861.34;5014813;28;45341;-69
2021/08/18 01:13:10;;;;;;;;;1.75;1.75;;;;;27.33;38.91;101844.00;5013480;28;47588;-69
2021/08/18 01:15:36;;;;;;;;;3.75;2.75;;;;;27.37;39.18;101859.50;5012855;28;45468;-69
2021/08/18 01:18:06;;;;;;;;;2.25;2.25;;;;;27.39;39.41;101864.63;5013416;28;46108;-69
2021/08/18 01:20:36;;;;;;;;;2.25;2.25;;;;;27.39;39.09;101856.63;5013776;28;45355;-69
2021/08/18 01:23:07;;;;;;;;;1.25;1.25;;;;;27.38;39.03;101863.81;5015527;28;45433;-69
2021/08/18 01:25:34;;;;;;;;;3.00;3.00;;;;;27.33;39.27;101846.69;5001188;28;45676;-69
2021/08/18 01:28:02;;;;;;;;;3.00;3.00;;;;;27.40;39.08;101858.28;5013057;28;46378;-69
2021/08/18 01:30:29;;;;;;;;;2.75;2.75;;;;;27.38;39.50;101858.47;5011485;28;45401;-69
2021/08/18 01:32:57;;;;;;;;;2.75;2.00;;;;;27.35;39.67;101842.00;5011722;28;45446;-69
2021/08/18 01:35:29;;;;;;;;;2.75;2.00;;;;;27.39;39.26;101852.09;5013257;28;45409;-69
2021/08/18 01:37:54;;;;;;;;;2.00;2.00;;;;;27.40;39.13;101855.59;5013636;28;45470;-69
2021/08/18 01:40:21;;;;;;;;;3.00;3.00;;;;;27.40;39.11;101851.06;5013204;28;45371;-68
2021/08/18 01:42:47;;;;;;;;;2.00;2.00;;;;;27.41;39.58;101854.56;5013197;28;45547;-69
2021/08/18 01:45:44;;;;;;;;;2.25;2.25;;;;;27.41;39.46;101841.22;5012773;28;45579;-69
2021/08/18 01:48:22;;;;;;;;;2.00;2.00;;;;;27.39;39.49;101844.09;5008071;28;45390;-69
2021/08/18 01:50:50;;;;;;;;;3.00;1.50;;;;;27.38;39.53;101847.78;4998257;28;45451;-69
2021/08/18 01:53:21;;;;;;;;;2.25;2.25;;;;;27.38;39.50;101849.59;5014357;28;45397;-69
2021/08/18 01:55:47;;;;;;;;;2.75;2.75;;;;;27.37;39.86;101845.31;5014620;28;45506;-69
2021/08/18 01:58:13;;;;;;;;;3.50;3.50;;;;;27.36;39.68;101840.97;5012443;28;46320;-69
2021/08/18 02:00:39;;;;;;;;;2.00;2.00;;;;;27.37;39.48;101837.28;5012848;28;45327;-69
2021/08/18 02:03:04;;;;;;;;;2.75;2.75;;;;;27.37;39.30;101837.28;5013072;28;45747;-69
2021/08/18 02:05:30;;;;;;;;;3.00;3.00;;;;;27.36;39.79;101844.47;5011825;28;45367;-69
2021/08/18 02:07:55;;;;;;;;;2.50;2.50;;;;;27.27;39.35;101827.72;5014826;28;45362;-69
2021/08/18 02:10:22;;;;;;;;;2.00;2.00;;;;;27.35;39.51;101834.78;5011337;28;45332;-69
2021/08/18 02:12:47;;;;;;;;;2.50;2.00;;;;;27.35;39.64;101832.13;5010842;28;45300;-69
2021/08/18 02:15:17;;;;;;;;;3.25;3.25;;;;;27.34;39.56;101830.47;5012833;28;45491;-69
2021/08/18 02:17:43;;;;;;;;;4.25;4.00;;;;;27.35;39.77;101833.97;5012719;28;46953;-69
2021/08/18 02:20:13;;;;;;;;;3.00;3.00;;;;;27.35;39.59;101833.97;5014418;28;45342;-69
2021/08/18 02:22:39;;;;;;;;;2.25;2.25;;;;;27.25;39.41;101821.75;5013637;28;45486;-69
2021/08/18 02:25:06;;;;;;;;;2.00;2.00;;;;;27.35;39.76;101831.31;5012648;28;46283;-68
2021/08/18 02:27:31;;;;;;;;;3.75;3.75;;;;;27.31;39.65;101824.69;5015034;28;45458;-69
2021/08/18 02:29:57;;;;;;;;;3.00;3.00;;;;;27.34;39.84;101832.31;5016022;28;45394;-69
2021/08/18 02:32:22;;;;;;;;;3.00;3.00;;;;;27.33;39.52;101836.00;5016352;28;45494;-69
2021/08/18 02:34:48;;;;;;;;;2.75;2.75;;;;;27.35;39.88;101836.66;5017681;28;45510;-69
2021/08/18 02:37:14;;;;;;;;;2.00;2.00;;;;;27.34;39.37;101837.66;5015718;28;46514;-69
2021/08/18 02:39:40;;;;;;;;;2.75;2.50;;;;;27.34;39.84;101835.81;5015625;28;45360;-69
2021/08/18 02:42:05;;;;;;;;;3.00;3.00;;;;;27.35;39.87;101842.81;5015540;28;45328;-69
2021/08/18 02:44:31;;;;;;;;;2.75;2.75;;;;;27.30;39.36;101829.19;5015993;28;45336;-69
2021/08/18 02:46:56;;;;;;;;;3.50;3.00;;;;;27.35;39.49;101842.00;5017627;28;47347;-68
2021/08/18 02:49:22;;;;;;;;;4.50;2.75;;;;;27.34;39.16;101841.16;5014206;28;45361;-69
2021/08/18 02:51:47;;;;;;;;;3.00;3.00;;;;;27.34;39.76;101837.66;5014048;28;45609;-69
2021/08/18 02:54:12;;;;;;;;;4.00;3.00;;;;;27.35;39.91;101831.31;5015619;28;45427;-69
2021/08/18 02:56:38;;;;;;;;;3.50;3.50;;;;;27.34;39.31;101833.16;5014518;28;45378;-69
2021/08/18 02:59:04;;;;;;;;;3.25;2.75;;;;;27.34;39.58;101832.31;5017644;28;45307;-69
2021/08/18 03:01:29;;;;;;;;;3.25;2.50;;;;;27.28;39.46;101815.22;5003461;28;45346;-69
2021/08/18 03:03:55;;;;;;;;;3.50;2.00;;;;;27.34;39.29;101825.13;5015521;28;45261;-69
2021/08/18 03:06:20;;;;;;;;;3.00;3.00;;;;;27.33;39.43;101827.97;5015307;28;46312;-69
2021/08/18 03:08:46;;;;;;;;;2.75;2.25;;;;;27.35;39.80;101821.44;5015479;28;47050;-69
2021/08/18 03:11:11;;;;;;;;;4.25;2.75;;;;;27.32;39.42;101818.34;5016697;28;45454;-69
2021/08/18 03:13:36;;;;;;;;;2.25;2.25;;;;;27.34;39.92;101821.63;5015834;28;45492;-69
2021/08/18 03:16:02;;;;;;;;;3.00;3.00;;;;;27.36;39.27;101828.44;5015053;28;45989;-69
2021/08/18 03:18:29;;;;;;;;;2.00;2.00;;;;;27.32;39.68;101821.00;5015236;28;45533;-69
2021/08/18 03:20:55;;;;;;;;;3.00;3.00;;;;;27.35;39.47;101824.09;5015439;28;45363;-69
2021/08/18 03:23:20;;;;;;;;;4.00;4.00;;;;;27.37;39.72;101831.94;5015955;28;45362;-69
2021/08/18 03:25:45;;;;;;;;;3.75;3.75;;;;;27.37;39.84;101823.94;5016042;28;45962;-69
2021/08/18 03:28:11;;;;;;;;;4.00;4.00;;;;;27.31;39.79;101814.81;5013573;28;45468;-70
2021/08/18 03:30:36;;;;;;;;;2.00;2.00;;;;;27.37;39.86;101826.59;5013569;28;45351;-69
2021/08/18 03:33:01;;;;;;;;;3.75;3.75;;;;;27.37;39.83;101821.25;5015040;28;45436;-69
2021/08/18 03:35:27;;;;;;;;;4.00;4.00;;;;;27.37;39.82;101829.25;5014767;28;46989;-69
2021/08/18 03:37:52;;;;;;;;;3.00;3.00;;;;;27.37;39.92;101823.94;5016862;28;45354;-69
2021/08/18 03:40:18;;;;;;;;;2.75;2.75;;;;;27.37;39.96;101821.25;5014773;28;45461;-69
2021/08/18 03:42:43;;;;;;;;;3.00;3.00;;;;;27.37;39.68;101818.56;5014835;28;45523;-69
2021/08/18 03:45:09;;;;;;;;;3.00;2.75;;;;;27.36;39.83;101816.91;5014818;28;47089;-69
2021/08/18 03:47:35;;;;;;;;;2.25;2.25;;;;;27.31;39.46;101808.66;5015007;28;45339;-70
2021/08/18 03:50:00;;;;;;;;;5.25;3.25;;;;;27.37;39.89;101819.41;5016854;28;45499;-69
2021/08/18 03:52:25;;;;;;;;;2.00;2.00;;;;;27.36;39.52;101811.56;5014610;28;45462;-69
2021/08/18 03:54:51;;;;;;;;;1.50;1.50;;;;;27.27;39.56;101805.56;5014091;28;45954;-69
2021/08/18 03:57:16;;;;;;;;;3.00;3.00;;;;;27.28;39.97;101808.03;5014600;28;45323;-70
2021/08/18 03:59:41;;;;;;;;;4.25;3.00;;;;;27.34;39.64;101811.78;5014923;28;45542;-69
2021/08/18 04:02:07;;;;;;;;;2.00;2.00;;;;;27.35;39.71;101815.28;5016747;28;45343;-69
2021/08/18 04:04:32;;;;;;;;;3.75;3.75;;;;;27.34;39.81;101819.78;5014356;28;46428;-69
2021/08/18 04:06:57;;;;;;;;;3.00;3.00;;;;;27.23;39.76;101802.44;5012963;28;45513;-69
2021/08/18 04:09:23;;;;;;;;;2.00;2.00;;;;;27.33;39.99;101818.13;5012711;28;45494;-69
2021/08/18 04:11:48;;;;;;;;;1.00;1.00;;;;;27.26;40.08;101812.75;5014668;28;45505;-69
2021/08/18 04:14:13;;;;;;;;;2.25;2.25;;;;;27.29;39.42;101815.03;5015488;28;46334;-70
2021/08/18 04:16:39;;;;;;;;;2.25;2.25;;;;;27.33;39.65;101822.63;5015008;28;45443;-70
2021/08/18 04:19:04;;;;;;;;;3.00;3.00;;;;;27.33;39.91;101823.47;5014401;28;45496;-69
2021/08/18 04:21:30;;;;;;;;;3.00;3.00;;;;;27.32;39.83;101821.00;5014331;28;45448;-69
2021/08/18 04:23:55;;;;;;;;;3.25;3.25;;;;;27.28;40.05;101813.38;5013860;28;46057;-69
2021/08/18 04:26:20;;;;;;;;;3.25;3.25;;;;;27.30;39.51;101815.84;5014841;28;45284;-69
2021/08/18 04:28:46;;;;;;;;;2.00;2.00;;;;;27.31;39.55;101824.69;5015553;28;45320;-69
2021/08/18 04:31:11;;;;;;;;;3.00;3.00;;;;;27.31;39.76;101814.81;5014100;28;45522;-69
2021/08/18 04:33:36;;;;;;;;;3.00;3.00;;;;;27.33;40.02;101811.94;5013852;28;47035;-69
2021/08/18 04:36:02;;;;;;;;;1.25;1.25;;;;;27.26;39.67;101809.22;5013964;28;45542;-69
2021/08/18 04:38:27;;;;;;;;;2.00;2.00;;;;;27.33;39.80;101823.47;5013894;28;45462;-69
2021/08/18 04:40:53;;;;;;;;;5.25;4.00;;;;;27.27;39.99;101809.03;5015889;28;45433;-69
2021/08/18 04:43:18;;;;;;;;;2.00;2.00;;;;;27.33;39.75;101818.13;5013796;28;45628;-68
2021/08/18 04:45:44;;;;;;;;;4.50;4.50;;;;;27.29;39.86;101816.88;5012643;28;45235;-69
2021/08/18 04:48:10;;;;;;;;;3.00;3.00;;;;;27.33;39.70;101826.16;5012358;28;45436;-69
2021/08/18 04:50:35;;;;;;;;;4.75;3.75;;;;;27.34;39.96;101821.63;5013578;28;45635;-69
2021/08/18 04:53:06;;;;;;;;;2.00;2.00;;;;;27.34;39.76;101817.13;5015355;28;45470;-69
2021/08/18 04:55:32;;;;;;;;;4.00;3.75;;;;;27.33;39.57;101810.13;5013677;28;45498;-69
2021/08/18 04:57:57;;;;;;;;;3.75;3.50;;;;;27.34;39.94;101806.44;5013747;28;45400;-70
2021/08/18 05:00:22;;;;;;;;;3.00;3.00;;;;;27.16;40.13;101790.88;5013528;28;45419;-69
2021/08/18 05:02:48;;;;;;;;;3.00;3.00;;;;;27.33;39.71;101814.63;5013710;28;46062;-69
2021/08/18 05:05:13;;;;;;;;;2.75;2.75;;;;;27.27;39.63;101801.00;5015071;28;45405;-70
2021/08/18 05:07:38;;;;;;;;;2.00;2.00;;;;;27.35;39.47;101815.28;5014278;28;45637;-69
2021/08/18 05:10:04;;;;;;;;;2.25;2.25;;;;;27.36;39.44;101822.25;5013669;28;45534;-69
2021/08/18 05:12:30;;;;;;;;;3.50;3.50;;;;;27.35;39.97;101817.94;5013258;28;45526;-70
2021/08/18 05:14:56;;;;;;;;;3.50;2.75;;;;;27.36;39.58;101819.59;5013484;28;45405;-70
2021/08/18 05:17:22;;;;;;;;;3.50;3.50;;;;;27.27;39.98;101800.22;5013951;28;45400;-69
2021/08/18 05:19:47;;;;;;;;;2.75;2.75;;;;;27.36;39.83;101816.91;5015121;28;45408;-69
2021/08/18 05:22:13;;;;;;;;;3.25;2.25;;;;;27.35;39.45;101816.09;5013099;28;45299;-69
2021/08/18 05:24:38;;;;;;;;;5.25;3.75;;;;;27.27;39.61;101803.69;5011905;28;45413;-69
2021/08/18 05:27:04;;;;;;;;;3.25;2.00;;;;;27.36;39.58;101816.91;5012073;28;45672;-69
2021/08/18 05:29:29;;;;;;;;;3.00;2.25;;;;;27.36;39.97;101819.59;5013421;28;45455;-69
2021/08/18 05:31:54;;;;;;;;;2.25;2.25;;;;;27.35;39.65;101815.28;5015019;28;46191;-69
2021/08/18 05:34:20;;;;;;;;;2.50;2.50;;;;;27.35;39.88;101816.09;5013211;28;45394;-69
2021/08/18 05:36:45;;;;;;;;;2.75;2.75;;;;;27.34;40.04;101821.63;5012858;28;47499;-69
2021/08/18 05:39:10;;;;;;;;;2.25;2.25;;;;;27.32;39.85;101819.16;5013355;28;45481;-69
2021/08/18 05:41:36;;;;;;;;;3.00;3.00;;;;;27.33;40.17;101815.47;5013113;28;45438;-69
2021/08/18 05:44:01;;;;;;;;;4.00;4.00;;;;;27.33;40.01;101822.63;5015016;28;45511;-69
2021/08/18 05:46:26;;;;;;;;;5.00;5.00;;;;;27.33;40.09;101819.97;5013305;28;45268;-69
2021/08/18 05:48:52;;;;;;;;;2.75;2.75;;;;;27.31;39.45;101825.50;5013008;28;45551;-69
2021/08/18 05:51:17;;;;;;;;;3.50;3.00;;;;;27.32;40.08;101826.34;5012784;28;45473;-69
2021/08/18 05:53:49;;;;;;;;;2.50;2.50;;;;;27.28;39.84;101815.22;5012988;28;45391;-69
2021/08/18 05:56:14;;;;;;;;;4.00;4.00;;;;;27.32;39.86;101826.34;5014230;28;45553;-69
2021/08/18 05:58:39;;;;;;;;;2.50;2.50;;;;;27.31;39.63;101828.19;5013653;28;45400;-69
2021/08/18 06:01:04;;;;;;;;;2.00;2.00;;;;;27.29;40.16;101822.22;5013576;28;49812;-69
2021/08/18 06:03:30;;;;;;;;;3.25;3.25;;;;;27.31;40.09;101819.34;5014921;28;45462;-69
2021/08/18 06:05:55;;;;;;;;;4.00;4.00;;;;;27.30;40.08;101813.16;5014747;28;45416;-69
2021/08/18 06:08:20;;;;;;;;;4.75;4.75;;;;;27.31;39.65;101822.00;5017263;28;45380;-69
2021/08/18 06:10:46;;;;;;;;;2.25;2.25;;;;;27.31;39.61;101822.00;5017558;28;46923;-69
2021/08/18 06:13:12;;;;;;;;;3.00;3.00;;;;;27.31;39.93;101825.50;5016078;28;45505;-69
2021/08/18 06:15:38;;;;;;;;;3.75;3.75;;;;;27.31;40.24;101828.19;5015921;28;45421;-69
2021/08/18 06:18:03;;;;;;;;;4.00;4.00;;;;;27.31;39.61;101830.84;5016150;28;45383;-69
2021/08/18 06:20:29;;;;;;;;;2.00;2.00;;;;;27.29;40.14;101819.53;5015877;28;45469;-69
2021/08/18 06:22:54;;;;;;;;;2.50;2.50;;;;;27.31;39.54;101827.34;5018154;28;45281;-69
2021/08/18 06:25:19;;;;;;;;;3.00;3.00;;;;;27.32;40.16;101827.19;5016234;28;47530;-69
2021/08/18 06:27:45;;;;;;;;;4.50;4.00;;;;;27.31;39.74;101832.69;5016234;28;45370;-69
2021/08/18 06:30:11;;;;;;;;;3.00;3.00;;;;;27.31;40.00;101830.84;5015697;28;45976;-69
2021/08/18 06:32:36;;;;;;;;;2.75;2.75;;;;;27.28;40.03;101826.72;5016025;28;45494;-69
2021/08/18 06:35:03;;;;;;;;;3.00;3.00;;;;;27.25;40.07;101824.44;5017558;28;45317;-69
2021/08/18 06:37:28;;;;;;;;;2.00;2.00;;;;;27.32;39.89;101829.84;5015860;28;45489;-69
2021/08/18 06:39:54;;;;;;;;;3.50;3.00;;;;;27.31;39.95;101827.34;4998818;28;46215;-70
2021/08/18 06:42:19;;;;;;;;;3.75;3.75;;;;;27.21;39.81;101815.16;5010320;28;45542;-69
2021/08/18 06:44:48;;;;;;;;;3.00;3.00;;;;;27.26;40.14;101820.75;5014549;28;45308;-69
2021/08/18 06:47:14;;;;;;;;;4.00;4.00;;;;;27.33;39.63;101830.66;5017320;28;45502;-69
2021/08/18 06:49:39;;;;;;;;;2.75;2.75;;;;;27.32;39.56;101835.19;5015807;28;46801;-69
2021/08/18 06:52:05;;;;;;;;;4.00;4.00;;;;;27.32;40.27;101835.19;5015513;28;45470;-69
2021/08/18 06:54:30;;;;;;;;;3.00;3.00;;;;;27.33;40.09;101833.31;5015639;28;45264;-70
2021/08/18 06:56:57;;;;;;;;;3.50;3.50;;;;;27.34;39.65;101827.81;5015755;28;45435;-69
2021/08/18 06:59:22;;;;;;;;;4.50;4.00;;;;;27.24;39.54;101817.44;5016058;28;46307;-70
2021/08/18 07:01:47;;;;;;;;;3.00;3.00;;;;;27.33;40.21;101826.16;5016696;28;46718;-70
2021/08/18 07:04:13;;;;;;;;;2.25;2.25;;;;;27.33;39.65;101827.97;5015333;28;45392;-70
2021/08/18 07:06:39;;;;;;;;;3.00;3.00;;;;;27.27;40.08;101830.41;5015435;28;45350;-69
2021/08/18 07:09:05;;;;;;;;;3.00;3.00;;;;;27.33;40.00;101833.31;5015412;28;45525;-69
2021/08/18 07:11:30;;;;;;;;;3.00;3.00;;;;;27.33;40.30;101834.16;5014919;28;45402;-69
2021/08/18 07:14:03;;;;;;;;;3.00;3.00;;;;;27.33;40.33;101823.47;5017393;28;45303;-69
2021/08/18 07:16:30;;;;;;;;;2.50;2.50;;;;;27.32;39.71;101824.50;5015362;28;45717;-69
2021/08/18 07:18:57;;;;;;;;;3.75;3.75;;;;;27.26;39.78;101815.41;5014601;28;45589;-69
2021/08/18 07:21:22;;;;;;;;;2.50;2.50;;;;;27.29;39.75;101817.69;5013791;28;45554;-69
2021/08/18 07:23:49;;;;;;;;;3.00;3.00;;;;;27.23;39.78;101809.63;5013878;28;45593;-70
2021/08/18 07:26:14;;;;;;;;;3.50;3.50;;;;;27.33;40.03;101825.31;5012246;28;45520;-69
2021/08/18 07:28:40;;;;;;;;;3.00;2.50;;;;;27.30;39.87;101826.53;5015559;28;47137;-69
2021/08/18 07:31:05;;;;;;;;;3.50;3.50;;;;;27.30;39.81;101823.84;5014994;28;45396;-69
2021/08/18 07:33:31;;;;;;;;;2.50;2.50;;;;;27.30;39.72;101821.19;5014187;28;45450;-70
2021/08/18 07:35:56;;;;;;;;;3.00;3.00;;;;;27.13;40.11;101794.75;5015178;28;45338;-70
2021/08/18 07:38:21;;;;;;;;;2.25;2.25;;;;;27.29;40.37;101825.72;5015409;28;47314;-69
2021/08/18 07:40:47;;;;;;;;;4.25;3.00;;;;;27.29;40.19;101825.72;5016280;28;45276;-70
2021/08/18 07:43:13;;;;;;;;;3.25;3.25;;;;;27.23;39.73;101807.78;5015048;28;45498;-69
2021/08/18 07:45:38;;;;;;;;;2.75;2.75;;;;;27.29;39.74;101822.22;5014682;28;45500;-74
2021/08/18 07:48:05;;;;;;;;;4.00;4.00;;;;;27.23;40.20;101805.09;5014720;28;46287;-70
2021/08/18 07:50:30;;;;;;;;;2.75;2.50;;;;;27.31;40.03;101816.66;5014814;28;45455;-70
2021/08/18 07:52:55;;;;;;;;;6.00;4.00;;;;;27.29;40.29;101817.69;5016632;28;45414;-69
2021/08/18 07:55:21;;;;;;;;;4.25;3.00;;;;;27.29;40.40;101820.38;5001586;28;45517;-69
2021/08/18 07:57:46;;;;;;;;;4.00;3.50;;;;;27.29;40.25;101822.22;5014424;28;46588;-69
2021/08/18 08:00:12;;;;;;;;;2.75;2.75;;;;;27.26;40.48;101811.91;5012792;28;45511;-69
2021/08/18 08:02:41;;;;;;;;;4.00;4.00;;;;;27.29;40.04;101815.03;5013791;28;45348;-69
2021/08/18 08:05:07;;;;;;;;;3.00;2.50;;;;;27.29;39.81;101808.84;5006884;28;45428;-69
2021/08/18 08:07:32;;;;;;;;;3.25;3.25;;;;;27.29;39.79;101812.38;5014299;28;45451;-70
2021/08/18 08:09:58;;;;;;;;;4.50;3.50;;;;;27.29;40.10;101807.00;5014156;28;48818;-70
2021/08/18 08:12:23;;;;;;;;;3.25;3.00;;;;;27.29;39.88;101809.69;5014411;28;45396;-69
2021/08/18 08:14:48;;;;;;;;;3.00;3.00;;;;;27.31;40.28;101811.31;5014187;28;45417;-69
2021/08/18 08:17:14;;;;;;;;;3.00;3.00;;;;;27.30;39.87;101813.16;5015759;28;47068;-69
2021/08/18 08:19:39;;;;;;;;;3.00;3.00;;;;;27.25;40.29;101800.38;5014913;28;45466;-69
2021/08/18 08:22:04;;;;;;;;;5.25;4.25;;;;;27.31;39.71;101814.00;5014456;28;45469;-69
2021/08/18 08:24:30;;;;;;;;;5.00;3.00;;;;;27.30;40.37;101818.50;5013448;28;45363;-70
2021/08/18 08:26:55;;;;;;;;;3.00;2.50;;;;;27.31;40.35;101820.16;5014256;28;46169;-69
2021/08/18 08:29:20;;;;;;;;;3.00;3.00;;;;;27.31;40.53;101820.16;5014680;28;45608;-70
2021/08/18 08:31:46;;;;;;;;;3.00;3.00;;;;;27.24;40.00;101814.78;5015548;28;45414;-69
2021/08/18 08:34:13;;;;;;;;;4.50;4.50;;;;;27.29;40.23;101820.38;5014041;28;45521;-69
2021/08/18 08:36:38;;;;;;;;;3.25;3.25;;;;;27.32;39.99;101831.69;5013735;28;46085;-68
2021/08/18 08:39:04;;;;;;;;;4.50;4.50;;;;;27.32;40.11;101829.03;5012132;28;45340;-69
2021/08/18 08:41:32;;;;;;;;;2.50;2.00;;;;;27.27;39.91;101825.06;5014138;28;45281;-69
2021/08/18 08:43:58;;;;;;;;;3.75;3.75;;;;;27.32;40.21;101837.03;5014639;28;45508;-69
2021/08/18 08:46:24;;;;;;;;;6.00;5.00;;;;;27.32;40.43;101835.19;5013578;28;46902;-69
2021/08/18 08:48:50;;;;;;;;;3.50;3.50;;;;;27.29;39.95;101831.06;5013729;28;45415;-68
2021/08/18 08:51:15;;;;;;;;;5.00;4.00;;;;;27.31;40.40;101830.84;5013942;28;45450;-69
2021/08/18 08:53:41;;;;;;;;;3.25;2.25;;;;;27.31;40.18;101833.53;5013975;28;45453;-69
2021/08/18 08:56:08;;;;;;;;;3.00;3.00;;;;;27.29;40.15;101836.41;5010051;28;47168;-69
2021/08/18 08:58:33;;;;;;;;;5.75;5.00;;;;;27.31;40.43;101840.72;5013418;28;45413;-70
2021/08/18 09:00:58;;;;;;;;;5.00;5.00;;;;;27.30;40.08;101839.88;5013608;28;45490;-69
2021/08/18 09:03:24;;;;;;;;;2.00;1.75;;;;;27.23;40.50;101839.00;5013729;28;45432;-69
2021/08/18 09:05:51;;;;;;;;;3.75;3.75;;;;;27.21;39.81;101827.69;5013623;28;45659;-69
2021/08/18 09:08:21;;;;;;;;;2.50;2.50;;;;;27.29;39.96;101839.06;5015035;28;45229;-69
2021/08/18 09:11:05;;;;;;;;;3.00;3.00;;;;;27.31;39.90;101835.38;5014955;28;45472;-69
2021/08/18 09:13:40;;;;;;;;;4.00;4.00;;;;;27.29;40.25;101832.91;5013018;28;45302;-69
2021/08/18 09:16:05;;;;;;;;;3.50;3.50;;;;;27.28;40.34;101837.41;5013329;28;46175;-69
2021/08/18 09:18:42;;;;;;;;;3.00;3.00;;;;;27.21;40.09;101822.34;5011762;28;45427;-70
2021/08/18 09:21:35;;;;;;;;;2.50;2.00;;;;;27.28;40.53;101837.41;5012259;28;45595;-69
2021/08/18 09:24:15;;;;;;;;;4.00;4.00;;;;;27.28;40.29;101832.06;5000552;28;45372;-70
2021/08/18 09:26:53;;;;;;;;;4.00;3.00;;;;;27.28;39.94;101831.25;4997659;28;47153;-69
2021/08/18 09:29:39;;;;;;;;;5.00;3.50;;;;;27.28;40.02;101825.91;5011333;28;45387;-69
2021/08/18 09:32:26;;;;;;;;;4.50;4.50;;;;;27.27;40.15;101827.72;5015132;28;45304;-69
2021/08/18 09:34:58;;;;;;;;;5.00;4.25;;;;;27.27;40.59;101830.41;5013794;28;45434;-70
2021/08/18 09:37:24;;;;;;;;;2.00;2.00;;;;;27.22;40.68;101821.34;5016508;28;46329;-69
2021/08/18 09:39:49;;;;;;;;;5.25;4.75;;;;;27.24;40.40;101828.13;5016572;28;45260;-69
2021/08/18 09:42:41;;;;;;;;;4.25;4.00;;;;;27.28;40.13;101832.06;5016388;28;45501;-69
2021/08/18 09:45:16;;;;;;;;;4.50;4.00;;;;;27.28;40.38;101832.06;5012377;28;45357;-69
2021/08/18 09:47:50;;;;;;;;;3.00;3.00;;;;;27.29;40.43;101830.22;5001173;28;45316;-67
2021/08/18 09:50:16;;;;;;;;;4.00;4.00;;;;;27.28;40.06;101826.72;5014766;28;45412;-67
2021/08/18 09:52:41;;;;;;;;;4.50;4.25;;;;;27.29;40.18;101822.22;5017314;28;45597;-69
2021/08/18 09:55:07;;;;;;;;;3.25;3.25;;;;;27.28;40.54;101824.06;5016599;28;45525;-68
2021/08/18 09:57:32;;;;;;;;;4.50;4.00;;;;;27.29;40.69;101822.22;5014775;28;45604;-69
2021/08/18 09:59:59;;;;;;;;;3.75;3.75;;;;;27.29;40.60;101823.03;5015203;28;45516;-69
2021/08/18 10:02:25;;;;;;;;;4.50;4.50;;;;;27.30;40.68;101815.84;5016998;28;45387;-69
2021/08/18 10:04:51;;;;;;;;;4.25;4.25;;;;;27.29;40.32;101815.03;5016253;28;45384;-69
2021/08/18 10:07:17;;;;;;;;;4.00;4.00;;;;;27.29;40.29;101825.72;5016078;28;47018;-69
2021/08/18 10:09:43;;;;;;;;;5.00;5.00;;;;;27.29;40.46;101830.22;5016379;28;45541;-69
2021/08/18 10:12:09;;;;;;;;;4.00;4.00;;;;;27.29;40.04;101831.06;5016004;28;45593;-69
2021/08/18 10:14:34;;;;;;;;;5.00;4.00;;;;;27.31;40.46;101830.03;5016463;28;45284;-69
2021/08/18 10:16:59;;;;;;;;;4.25;3.50;;;;;27.29;40.38;101824.88;5018340;28;46130;-69
2021/08/18 10:19:25;;;;;;;;;5.75;3.50;;;;;27.31;40.74;101824.69;5016044;28;45276;-69
2021/08/18 10:21:58;;;;;;;;;5.00;4.00;;;;;27.31;40.11;101827.34;5016453;28;45285;-69
2021/08/18 10:24:35;;;;;;;;;3.00;3.00;;;;;27.31;40.78;101822.84;5016145;28;45336;-69
2021/08/18 10:27:04;;;;;;;;;4.00;4.00;;;;;27.29;40.33;101828.38;5015601;28;46074;-69
2021/08/18 10:29:39;;;;;;;;;7.00;4.75;;;;;27.30;40.08;101826.53;5016004;28;45509;-69
2021/08/18 10:32:16;;;;;;;;;3.00;3.00;;;;;27.29;40.17;101830.22;5018042;28;45323;-69
2021/08/18 10:34:47;;;;;;;;;5.25;5.25;;;;;27.28;40.74;101820.56;5015283;28;45544;-70
2021/08/18 10:37:13;;;;;;;;;3.25;3.25;;;;;27.29;40.47;101830.22;5014257;28;46143;-69
2021/08/18 10:39:40;;;;;;;;;6.25;5.00;;;;;27.29;40.80;101825.72;5013994;28;45353;-70
2021/08/18 10:42:13;;;;;;;;;2.25;2.25;;;;;27.29;40.61;101822.22;5016053;28;45589;-69
2021/08/18 10:44:41;;;;;;;;;5.00;3.00;;;;;27.28;40.29;101813.38;4999077;28;45466;-69
2021/08/18 10:47:26;;;;;;;;;4.25;3.00;;;;;27.27;40.75;101814.38;5012728;28;45393;-69
2021/08/18 10:49:57;;;;;;;;;3.25;3.25;;;;;27.19;40.12;101811.88;5015580;28;46477;-69
2021/08/18 10:52:28;;;;;;;;;4.00;4.00;;;;;27.28;40.51;101826.72;5015563;28;45521;-69
2021/08/18 10:55:22;;;;;;;;;3.75;3.75;;;;;27.27;40.19;101814.38;5015164;28;45247;-69
2021/08/18 10:57:49;;;;;;;;;4.00;4.00;;;;;27.27;40.89;101814.38;5003303;28;47387;-70
2021/08/18 11:00:17;;;;;;;;;4.25;3.00;;;;;27.28;40.96;101824.06;5015436;28;45487;-68
2021/08/18 11:02:53;;;;;;;;;3.00;3.00;;;;;27.28;40.56;101831.25;5015643;28;45422;-70
2021/08/18 11:05:29;;;;;;;;;4.00;4.00;;;;;27.28;40.26;101828.56;5016729;28;45393;-69
2021/08/18 11:08:03;;;;;;;;;4.00;4.00;;;;;27.28;40.29;101833.91;5015500;28;45533;-69
2021/08/18 11:10:55;;;;;;;;;3.00;3.00;;;;;27.28;40.62;101829.41;5014853;28;45413;-70
2021/08/18 11:13:58;;;;;;;;;3.00;3.00;;;;;27.28;40.32;101825.91;5004253;28;45748;-69
2021/08/18 11:16:31;;;;;;;;;4.00;4.00;;;;;27.27;40.27;101830.41;5013856;28;45588;-69
2021/08/18 11:19:08;;;;;;;;;3.50;3.50;;;;;27.26;40.23;101834.13;5013456;28;45497;-69
2021/08/18 11:21:41;;;;;;;;;4.00;4.00;;;;;27.27;40.40;101829.59;5015125;28;45378;-70
2021/08/18 11:24:09;;;;;;;;;4.50;3.25;;;;;27.27;40.18;101834.94;5014867;28;45415;-69